createdAt,value
2017-08-18T00:05:07.609Z,87.68
2017-08-18T00:15:30.541Z,86.89
2017-08-18T00:25:53.161Z,85.54
2017-08-18T00:36:15.824Z,86.15
2017-08-18T00:46:38.383Z,84.60
2017-08-18T00:57:00.288Z,85.40
2017-08-18T01:07:21.525Z,86.55
2017-08-18T01:17:44.424Z,86.88
2017-08-18T01:28:07.009Z,86.65
2017-08-18T01:38:30.511Z,87.31
2017-08-18T01:48:52.467Z,87.50
2017-08-18T01:59:14.137Z,87.44
2017-08-18T02:09:36.989Z,87.88
2017-08-18T02:19:59.721Z,88.21
2017-08-18T02:30:22.372Z,88.15
2017-08-18T02:46:01.893Z,88.06
2017-08-18T02:51:08.537Z,88.24
2017-08-18T03:01:30.524Z,87.64
2017-08-18T03:11:52.668Z,87.38
2017-08-18T03:22:15.759Z,87.83
2017-08-18T03:32:39.234Z,87.52
2017-08-18T03:48:17.845Z,85.97
2017-08-18T03:58:40.353Z,87.79
2017-08-18T04:09:02.918Z,88.08
2017-08-18T04:19:25.593Z,87.73
2017-08-18T04:29:47.393Z,87.39
2017-08-18T04:40:09.239Z,86.25
2017-08-18T04:50:31.894Z,87.41
2017-08-18T05:00:53.682Z,91.25
2017-08-18T05:11:15.894Z,90.09
2017-08-18T05:21:37.839Z,92.96
2017-08-18T05:32:03.943Z,92.99
2017-08-18T05:47:41.809Z,93.27
2017-08-18T05:58:05.975Z,93.10
2017-08-18T06:08:29.091Z,93.94
2017-08-18T06:18:51.636Z,94.63
2017-08-18T06:30:16.912Z,93.54
2017-08-18T06:45:55.087Z,93.40
2017-08-18T06:56:17.012Z,92.42
2017-08-18T07:06:41.293Z,94.05
2017-08-18T07:17:04.081Z,92.18
2017-08-18T07:27:26.312Z,93.26
2017-08-18T07:37:48.166Z,92.68
2017-08-18T07:48:11.820Z,92.95
2017-08-18T07:58:34.015Z,92.36
2017-08-18T08:08:56.523Z,91.39
2017-08-18T08:19:19.919Z,92.04
2017-08-18T08:29:45.699Z,90.95
2017-08-18T08:45:25.333Z,93.11
2017-08-18T08:55:47.973Z,92.46
2017-08-18T09:06:11.803Z,92.73
2017-08-18T09:16:34.352Z,89.13
2017-08-18T09:37:54.586Z,89.61
2017-08-18T09:48:46.432Z,89.19
2017-08-18T09:59:38.572Z,90.72
2017-08-18T10:10:14.217Z,90.35
2017-08-18T10:20:41.205Z,90.50
2017-08-18T10:31:14.885Z,87.93
2017-08-18T10:47:06.747Z,88.40
2017-08-18T10:57:28.644Z,88.39
2017-08-18T11:07:52.056Z,86.24
2017-08-18T11:18:15.473Z,88.38
2017-08-18T11:28:37.470Z,89.63
2017-08-18T11:44:42.728Z,88.75
2017-08-18T11:55:09.367Z,84.33
2017-08-18T12:05:33.942Z,85.25
2017-08-18T12:16:13.167Z,85.14
2017-08-18T12:26:40.881Z,89.61
2017-08-18T12:37:11.443Z,87.49
2017-08-18T12:47:34.231Z,88.90
2017-08-18T12:57:57.644Z,86.61
2017-08-18T13:08:20.572Z,83.16
2017-08-18T13:18:42.504Z,85.87
2017-08-18T13:29:04.281Z,87.03
2017-08-18T13:44:42.917Z,87.06
2017-08-18T13:55:10.810Z,89.56
2017-08-18T14:05:44.988Z,83.00
2017-08-18T14:16:07.661Z,90.72
2017-08-18T14:26:35.117Z,86.09
2017-08-18T14:36:57.783Z,89.81
2017-08-18T14:47:24.583Z,90.48
2017-08-18T14:57:47.308Z,90.80
2017-08-18T15:08:09.844Z,91.87
2017-08-18T15:18:32.414Z,92.32
2017-08-18T15:28:54.990Z,92.40
2017-08-18T15:44:34.209Z,92.44
2017-08-18T15:54:58.514Z,92.00
2017-08-18T16:05:20.992Z,92.77
2017-08-18T16:15:42.886Z,92.75
2017-08-18T16:26:05.378Z,93.62
2017-08-18T16:31:11.148Z,92.97
2017-08-18T16:46:48.909Z,92.14
2017-08-18T16:57:11.486Z,93.83
2017-08-18T17:07:34.111Z,94.19
2017-08-18T17:17:56.753Z,93.74
2017-08-18T17:28:19.570Z,93.07
2017-08-18T17:38:41.396Z,92.14
2017-08-18T17:49:04.451Z,90.38
2017-08-18T17:59:26.398Z,89.11
2017-08-18T18:09:49.317Z,88.50
2017-08-18T18:20:12.732Z,87.75
2017-08-18T18:30:35.800Z,87.60
2017-08-18T18:46:16.400Z,88.99
2017-08-18T18:56:39.736Z,92.90
2017-08-18T19:07:01.682Z,93.79
2017-08-18T19:17:24.303Z,93.10
2017-08-18T19:27:45.996Z,93.83
2017-08-18T19:38:08.108Z,94.79
2017-08-18T19:48:30.105Z,93.34
2017-08-18T19:58:51.948Z,94.64
2017-08-18T20:09:14.899Z,93.91
2017-08-18T20:19:37.506Z,93.65
2017-08-18T20:30:00.022Z,93.57
2017-08-18T20:45:39.402Z,93.43
2017-08-18T20:56:01.361Z,93.28
2017-08-18T21:06:24.690Z,93.48
2017-08-18T21:16:46.586Z,93.98
2017-08-18T21:27:13.324Z,94.52
2017-08-18T21:37:35.636Z,94.69
2017-08-18T21:47:58.976Z,94.25
2017-08-18T21:59:21.489Z,94.55
2017-08-18T22:09:44.052Z,92.55
2017-08-18T22:20:07.383Z,86.60
2017-08-18T22:30:29.104Z,88.86
2017-08-18T22:46:07.607Z,90.88
2017-08-18T22:51:14.593Z,94.34
2017-08-18T23:01:37.329Z,93.20
2017-08-18T23:12:01.907Z,92.84
2017-08-18T23:22:24.849Z,92.47
2017-08-18T23:32:48.462Z,91.85
2017-08-18T23:48:28.149Z,92.29
